• Join FlightAware (Why Join?)
  • Login
  • US Flag 
11:39AM EDT


 

Airport Tracker/Info


-or-


 

Live Flight TrackerFlight Track Log ✈ TAM8014 ✈ 17-Jul-2013 ✈ SBGR / GRU - SABE / AEP

Flight Track Log - Related Links

Times and Time Zones

All times are in EDT time to prevent confusion due to time zone crossing. See the TAM8014 flight status page for this flight to view local times or setup timezone preferences in your user account.

Time Position Orientation Groundspeed Altitude Reporting Facility
EDT Latitude Longitude Course Direction KTS MPH feet Rate Location/Type
06:10AM -23.4310 -46.4840 163° South 9 10  Level FlightAware
06:10AM -23.4320 -46.4840 180° South 6 7 240 Level FlightAware
06:13AM -23.5867 -46.6277 220° Southwest  Level Estimated
06:13AM -23.4330 -46.4840 220° Southwest 7 8  Level FlightAware
06:16AM -23.6001 -46.6393 220° Southwest  Level Estimated
06:17AM -23.6749 -46.7090 220° Southwest  Level Estimated
06:18AM -23.7497 -46.7787 220° Southwest  Level Estimated
06:18AM -23.4340 -46.4810 220° Southwest 37 43  Level FlightAware
06:18AM -23.4320 -46.4740 73° East 125 144 3,300 Level FlightAware
06:19AM -23.4270 -46.4560 73° East 165 190 2,500 5,100 Climbing FlightAware
06:19AM -23.4250 -46.4480 75° East 159 183 3,000 1,800 Climbing FlightAware
06:19AM -23.4200 -46.4260 76° East 185 213 3,600 1,080 Climbing FlightAware
06:20AM -23.4280 -46.4050 113° Southeast 216 249 4,000 1,380 Climbing FlightAware
06:20AM -23.4440 -46.3980 158° South 221 254 4,600 2,700 Climbing FlightAware
06:20AM -23.4690 -46.4140 210° Southwest 198 228 5,900 2,340 Climbing FlightAware
06:21AM -23.4770 -46.4360 248° West 204 235 6,600 1,740 Climbing FlightAware
06:21AM -23.4910 -46.4660 243° Southwest 226 260 7,500 1,500 Climbing FlightAware
06:22AM -23.5110 -46.4960 234° Southwest 268 308 8,100 1,500 Climbing FlightAware
06:22AM -23.5200 -46.5070 228° Southwest 280 322 8,500 2,820 Climbing FlightAware
06:23AM -23.5560 -46.5560 231° Southwest 288 331 10,700 2,100 Climbing FlightAware
06:24AM -23.6140 -46.6270 228° Southwest 344 396 12,100 2,040 Climbing FlightAware
06:24AM -23.6620 -46.6740 222° Southwest 347 399 14,000 2,460 Climbing FlightAware
06:25AM -23.7160 -46.7270 222° Southwest 358 412 15,600 2,160 Climbing FlightAware
06:26AM -23.7700 -46.7810 222° Southwest 363 418 17,200 2,040 Climbing FlightAware
06:26AM -23.8210 -46.8320 222° Southwest 375 432 18,500 1,920 Climbing FlightAware
06:27AM -23.8770 -46.8870 222° Southwest 382 440 19,900 1,800 Climbing FlightAware
06:28AM -23.9310 -46.9410 222° Southwest 389 448 21,100 1,740 Climbing FlightAware
06:29AM -23.9910 -47.0010 222° Southwest 396 456 22,400 1,800 Climbing FlightAware
06:29AM -24.0440 -47.0540 222° Southwest 394 453 23,700 1,680 Climbing FlightAware
06:30AM -24.1000 -47.1100 222° Southwest 401 461 24,700 1,320 Climbing FlightAware
06:31AM -24.1600 -47.1700 222° Southwest 409 471 25,600 1,200 Climbing FlightAware
06:31AM -24.2260 -47.2350 222° Southwest 419 482 26,500 1,320 Climbing FlightAware
06:32AM -24.2840 -47.2910 221° Southwest 420 483 27,500 1,260 Climbing FlightAware
06:33AM -24.3400 -47.3450 221° Southwest 425 489 28,200 1,140 Climbing FlightAware
06:33AM -24.3990 -47.4030 222° Southwest 426 490 29,100 1,260 Climbing FlightAware
06:34AM -24.4600 -47.4630 222° Southwest 425 489 30,000 1,080 Climbing FlightAware
06:35AM -24.5230 -47.5250 222° Southwest 433 498 30,600 1,200 Climbing FlightAware
06:35AM -24.5790 -47.5800 222° Southwest 424 488 31,600 1,260 Climbing FlightAware
06:36AM -24.6350 -47.6350 222° Southwest 424 488 32,300 900 Climbing FlightAware
06:37AM -24.6900 -47.6890 222° Southwest 426 490 32,800 900 Climbing FlightAware
06:37AM -24.7540 -47.7520 222° Southwest 424 488 33,600 1,080 Climbing FlightAware
06:38AM -24.8260 -47.8240 222° Southwest 422 486 34,500 1,020 Climbing FlightAware
06:39AM -24.8890 -47.8860 222° Southwest 416 479 35,200 900 Climbing FlightAware
06:40AM -24.9480 -47.9450 222° Southwest 416 479 35,800 540 Climbing FlightAware
06:40AM -25.0060 -48.0020 222° Southwest 409 471 36,000 120 Climbing FlightAware
06:41AM -25.0630 -48.0580 222° Southwest 412 474 36,000  Level FlightAware
06:42AM -25.1260 -48.1210 222° Southwest 413 475 36,000  Level FlightAware
06:42AM -25.1830 -48.1780 222° Southwest 415 478 36,000  Level FlightAware
06:43AM -25.2460 -48.2410 222° Southwest 416 479 36,000  Level FlightAware
06:44AM -25.3010 -48.2950 222° Southwest 416 479 36,000  Level FlightAware
06:44AM -25.3580 -48.3530 223° Southwest 416 479 36,000  Level FlightAware
06:45AM -25.4260 -48.4210 222° Southwest 418 481 36,000  Level FlightAware
06:46AM -25.4820 -48.4770 222° Southwest 417 480 36,000  Level FlightAware
06:47AM -25.5470 -48.5410 222° Southwest 418 481 36,000  Level FlightAware
06:47AM -25.6080 -48.5950 219° Southwest 418 481 36,000  Level FlightAware
06:48AM -25.6680 -48.6480 219° Southwest 417 480 36,000  Level FlightAware
06:49AM -25.7290 -48.7020 219° Southwest 417 480 36,000  Level FlightAware
06:49AM -25.7950 -48.7610 219° Southwest 416 479 36,000  Level FlightAware
06:50AM -25.8780 -48.8350 219° Southwest 415 478 36,000  Level FlightAware
06:51AM -25.9460 -48.8960 219° Southwest 412 474 36,000  Level FlightAware
06:52AM -26.0040 -48.9480 219° Southwest 412 474 36,000  Level FlightAware
06:52AM -26.0640 -49.0020 219° Southwest 412 474 36,000  Level FlightAware
06:53AM -26.1210 -49.0530 219° Southwest 412 474 36,000  Level FlightAware
06:54AM -26.2080 -49.1310 219° Southwest 412 474 36,000  Level FlightAware
06:55AM -26.2710 -49.1870 219° Southwest 413 475 36,000  Level FlightAware
06:55AM -26.3340 -49.2450 220° Southwest 413 475 36,000  Level FlightAware
06:56AM -26.3950 -49.3000 219° Southwest 411 473 36,000  Level FlightAware
06:57AM -26.4620 -49.3610 219° Southwest 410 472 36,000  Level FlightAware
06:58AM -26.5280 -49.4200 219° Southwest 411 473 36,000  Level FlightAware
06:58AM -26.5890 -49.4750 219° Southwest 410 472 36,000  Level FlightAware
06:59AM -26.6420 -49.5240 220° Southwest 410 472 36,000  Level FlightAware
07:00AM -26.7600 -49.6300 219° Southwest 410 472 36,000  Level FlightAware
07:02AM -26.9350 -49.7910 222° Southwest 409 471 36,000  Level FlightAware
07:03AM -26.9099 -49.7811 222° Southwest  Level Estimated
07:03AM -27.0070 -49.8570 219° Southwest 408 470 36,000  Level FlightAware
07:04AM -27.0670 -49.9120 219° Southwest 408 470 36,000  Level FlightAware
07:04AM -27.1190 -49.9590 219° Southwest 408 470 36,000  Level FlightAware
07:05AM -27.1870 -50.0220 219° Southwest 410 472 36,000  Level FlightAware
07:06AM -27.2400 -50.0700 219° Southwest 410 472 36,000  Level FlightAware
07:06AM -27.2850 -50.1110 219° Southwest 410 472 36,000  Level FlightAware
07:07AM -27.3800 -50.2000 220° Southwest 412 474 36,000  Level FlightAware
07:08AM -27.4330 -50.2490 219° Southwest 412 474 36,000  Level FlightAware
07:09AM -27.4840 -50.2960 219° Southwest 412 474 36,000  Level FlightAware
07:09AM -27.5440 -50.3520 220° Southwest 411 473 36,000  Level FlightAware
07:10AM -27.6030 -50.4060 219° Southwest 410 472 36,000  Level FlightAware
07:12AM -27.7710 -50.5630 220° Southwest 406 467 36,000  Level FlightAware
07:13AM -27.8530 -50.6400 220° Southwest 406 467 36,000  Level FlightAware
07:13AM -27.9170 -50.7000 220° Southwest 405 466 36,000  Level FlightAware
07:14AM -27.9690 -50.7480 219° Southwest 405 466 36,000  Level FlightAware
07:15AM -28.0260 -50.8020 220° Southwest 406 467 36,000  Level FlightAware
07:15AM -28.0840 -50.8570 220° Southwest 408 470 36,000  Level FlightAware
07:16AM -28.1490 -50.9180 220° Southwest 408 470 36,000  Level FlightAware
07:17AM -28.2100 -50.9760 220° Southwest 410 472 36,000  Level FlightAware
07:17AM -28.2700 -51.0320 219° Southwest 412 474 36,000  Level FlightAware
07:18AM -28.3290 -51.0890 220° Southwest 413 475 36,000  Level FlightAware
07:19AM -28.3940 -51.1490 219° Southwest 415 478 36,000  Level FlightAware
07:19AM -28.4520 -51.2050 220° Southwest 414 476 36,000  Level FlightAware
07:20AM -28.5180 -51.2680 220° Southwest 413 475 36,000  Level FlightAware
07:21AM -28.5770 -51.3240 220° Southwest 413 475 36,000  Level FlightAware
07:22AM -28.6410 -51.3840 219° Southwest 412 474 36,000  Level FlightAware
07:22AM -28.7020 -51.4430 220° Southwest 412 474 36,000  Level FlightAware
07:23AM -28.7670 -51.5050 220° Southwest 411 473 36,000  Level FlightAware
07:24AM -28.8250 -51.5610 220° Southwest 412 474 36,000  Level FlightAware
07:24AM -28.8890 -51.6220 220° Southwest 412 474 36,000  Level FlightAware
07:25AM -28.9470 -51.6780 220° Southwest 410 472 36,000  Level FlightAware
07:26AM -28.9990 -51.7280 220° Southwest 410 472 36,000  Level FlightAware
07:26AM -29.0580 -51.7840 220° Southwest 409 471 36,000  Level FlightAware
07:27AM -29.1200 -51.8450 221° Southwest 409 471 36,000  Level FlightAware
07:28AM -29.1780 -51.9000 220° Southwest 409 471 36,000  Level FlightAware
07:28AM -29.2300 -51.9510 221° Southwest 408 470 36,000  Level FlightAware
07:29AM -29.2920 -52.0120 221° Southwest 409 471 36,000  Level FlightAware
07:30AM -29.3430 -52.0610 220° Southwest 410 472 36,000  Level FlightAware
07:30AM -29.4110 -52.1270 220° Southwest 410 472 36,000  Level FlightAware
07:31AM -29.4740 -52.1890 221° Southwest 412 474 36,000  Level FlightAware
07:32AM -29.5320 -52.2450 220° Southwest 412 474 36,000  Level FlightAware
07:33AM -29.5950 -52.3070 221° Southwest 412 474 36,000  Level FlightAware
07:33AM -29.6290 -52.3400 220° Southwest 413 475 36,000  Level FlightAware
07:34AM -29.6870 -52.3970 220° Southwest 412 474 36,000  Level FlightAware
07:35AM -29.7520 -52.4610 221° Southwest 411 473 36,000  Level FlightAware
07:35AM -29.7920 -52.5010 221° Southwest 410 472 36,000  Level FlightAware
07:36AM -29.8540 -52.5620 220° Southwest 408 470 36,000  Level FlightAware
07:37AM -29.9120 -52.6180 220° Southwest 407 468 36,000  Level FlightAware
07:37AM -29.9630 -52.6690 221° Southwest 406 467 36,000  Level FlightAware
07:38AM -30.0220 -52.7270 220° Southwest 404 465 36,000  Level FlightAware
07:39AM -30.0830 -52.7880 221° Southwest 403 464 36,000  Level FlightAware
07:39AM -30.1400 -52.8450 221° Southwest 404 465 36,000  Level FlightAware
07:40AM -30.1920 -52.8970 221° Southwest 403 464 36,000  Level FlightAware
07:41AM -30.2390 -52.9440 221° Southwest 403 464 36,000  Level FlightAware
07:41AM -30.3070 -53.0110 220° Southwest 402 463 36,000  Level FlightAware
07:42AM -30.3540 -53.0590 221° Southwest 401 461 36,000  Level FlightAware
07:43AM -30.3990 -53.1030 220° Southwest 400 460 36,000  Level FlightAware
07:44AM -30.4540 -53.1590 221° Southwest 401 461 36,000  Level FlightAware
07:44AM -30.5870 -53.2920 221° Southwest 399 459 36,000  Level FlightAware
07:45AM -30.6490 -53.3540 221° Southwest 398 458 36,000  Level FlightAware
07:46AM -30.7010 -53.4070 221° Southwest 398 458 36,000  Level FlightAware
07:46AM -30.7650 -53.4710 221° Southwest 396 456 36,000  Level FlightAware
07:47AM -30.8140 -53.5210 221° Southwest 396 456 36,000  Level FlightAware
07:48AM -30.8700 -53.5780 221° Southwest 398 458 36,000  Level FlightAware
07:49AM -30.9460 -53.6540 221° Southwest 399 459 36,000  Level FlightAware
07:49AM -30.9950 -53.7050 222° Southwest 399 459 36,000  Level FlightAware
07:50AM -31.0520 -53.7620 221° Southwest 400 460 36,000  Level FlightAware
07:50AM -31.1070 -53.8180 221° Southwest 399 459 36,000  Level FlightAware
07:51AM -31.1700 -53.8830 221° Southwest 399 459 36,000  Level FlightAware
07:52AM -31.2330 -53.9470 221° Southwest 399 459 36,000  Level FlightAware
07:53AM -31.2880 -54.0040 222° Southwest 399 459 36,000  Level FlightAware
07:53AM -31.3330 -54.0500 221° Southwest 397 457 36,000  Level FlightAware
07:54AM -31.3910 -54.1090 221° Southwest 396 456 36,000  Level FlightAware
07:55AM -31.4510 -54.1790 225° Southwest 396 456 36,000  Level FlightAware
07:55AM -31.5020 -54.2400 226° Southwest 396 456 36,000  Level FlightAware
07:56AM -31.5470 -54.2920 225° Southwest 395 455 36,000  Level FlightAware
07:57AM -31.5980 -54.3530 226° Southwest 395 455 36,000  Level FlightAware
07:57AM -31.6490 -54.4160 226° Southwest 395 455 36,000  Level FlightAware
07:58AM -31.6860 -54.4600 225° Southwest 395 455 36,000  Level FlightAware
07:59AM -31.7570 -54.5490 227° Southwest 394 453 36,000  Level FlightAware
07:59AM -31.7950 -54.5960 226° Southwest 394 453 36,000  Level FlightAware
08:00AM -31.8470 -54.6590 226° Southwest 394 453 36,000  Level FlightAware
08:01AM -31.8860 -54.7060 226° Southwest 394 453 36,000  Level FlightAware
08:01AM -31.9260 -54.7550 226° Southwest 394 453 36,000  Level FlightAware
08:02AM -31.9640 -54.8020 226° Southwest 394 453 36,000  Level FlightAware
08:03AM -32.0290 -54.8810 226° Southwest 394 453 36,000  Level FlightAware
08:04AM -32.0680 -54.9280 226° Southwest 394 453 36,000  Level FlightAware
08:04AM -32.1190 -54.9910 226° Southwest 394 453 36,000  Level FlightAware
08:05AM -32.1580 -55.0390 226° Southwest 394 453 36,000  Level FlightAware
08:06AM -32.2100 -55.1020 226° Southwest 394 453 36,000  Level FlightAware
08:06AM -32.2480 -55.1500 227° Southwest 394 453 36,000  Level FlightAware
08:07AM -32.3000 -55.2130 226° Southwest 394 453 36,000  Level FlightAware
08:08AM -32.3400 -55.2620 226° Southwest 394 453 36,000  Level FlightAware
08:11AM -32.4994 -55.4796 229° Southwest  Level Estimated
08:12AM -32.5598 -55.5625 229° Southwest  Level Estimated
08:13AM -32.6202 -55.6454 229° Southwest  Level Estimated
08:14AM -32.6805 -55.7285 229° Southwest  Level Estimated
08:14AM -32.9030 -55.9970 229° Southwest 384 442 36,000  Level FlightAware
08:15AM -32.7408 -55.8116 229° Southwest  Level Estimated
08:17AM -33.0338 -56.1823 230° Southwest  Level Estimated
08:17AM -33.0640 -56.2020 230° Southwest 384 442 36,000  Level FlightAware
08:18AM -33.1100 -56.2620 228° Southwest 384 442 36,000  Level FlightAware
08:18AM -33.1450 -56.3060 226° Southwest 384 442 36,000  Level FlightAware
08:19AM -33.1910 -56.3650 227° Southwest 384 442 36,000  Level FlightAware
08:20AM -33.2410 -56.4290 227° Southwest 384 442 36,000  Level FlightAware
08:21AM -33.3600 -56.5890 228° Southwest 383 441 36,000  Level FlightAware
08:21AM -33.4070 -56.6510 228° Southwest 384 442 36,000  Level FlightAware
08:22AM -33.4640 -56.7260 228° Southwest 385 443 36,000 -660 Level FlightAware
08:23AM -33.5070 -56.7820 227° Southwest 387 445 35,100 -1,860 Descending FlightAware
08:24AM -33.5680 -56.8620 228° Southwest 375 432 33,400 -1,500 Descending FlightAware
08:24AM -33.6070 -56.9130 227° Southwest 373 429 33,000 -2,100 Descending FlightAware
08:25AM -33.6610 -56.9860 228° Southwest 359 413 30,500 -2,700 Descending FlightAware
08:26AM -33.7050 -57.0440 228° Southwest 355 409 29,200 -2,040 Descending FlightAware
08:26AM -33.7470 -57.0990 227° Southwest 350 403 27,900 -2,160 Descending FlightAware
08:27AM -33.7940 -57.1620 228° Southwest 348 400 26,300 -2,160 Descending FlightAware
08:28AM -33.8370 -57.2190 228° Southwest 345 397 24,900 -2,160 Descending FlightAware
08:28AM -33.8750 -57.2700 228° Southwest 343 395 23,600 -2,100 Descending FlightAware
08:29AM -33.9180 -57.3270 228° Southwest 339 390 22,300 -1,980 Descending FlightAware
08:30AM -33.9630 -57.3880 228° Southwest 333 383 20,900 -1,980 Descending FlightAware
08:30AM -34.0030 -57.4400 227° Southwest 330 380 19,600 -2,100 Descending FlightAware
08:31AM -34.0490 -57.5020 228° Southwest 322 371 18,000 -2,100 Descending FlightAware
08:32AM -34.0880 -57.5550 228° Southwest 314 361 16,600 -2,100 Descending FlightAware
08:32AM -34.1310 -57.6130 228° Southwest 303 349 15,100 -1,980 Descending FlightAware
08:33AM -34.1640 -57.6560 227° Southwest 296 341 14,000 -1,740 Descending FlightAware
08:34AM -34.2000 -57.7060 229° Southwest 286 329 12,900 -1,680 Descending FlightAware
08:34AM -34.2350 -57.7520 227° Southwest 275 316 11,800 -1,680 Descending FlightAware
08:35AM -34.2650 -57.7930 228° Southwest 269 310 10,800 -1,260 Descending FlightAware
08:36AM -34.3000 -57.8400 228° Southwest 252 290 10,100 -960 Descending FlightAware
08:36AM -34.3210 -57.8690 229° Southwest 240 276 9,700 -1,080 Descending FlightAware
08:37AM -34.3420 -57.8980 229° Southwest 236 272 9,100 -1,500 Descending FlightAware
08:37AM -34.3580 -57.9160 223° Southwest 243 280 8,500 -1,380 Descending FlightAware
08:37AM -34.3830 -57.9380 216° Southwest 239 275 8,000 -1,080 Descending FlightAware
08:38AM -34.4040 -57.9570 217° Southwest 235 270 7,600 -1,080 Descending FlightAware
08:38AM -34.4330 -57.9840 218° Southwest 229 264 7,000 -660 Descending FlightAware
08:39AM -34.4540 -58.0030 217° Southwest 235 270 7,000 -480 Level FlightAware
08:39AM -34.4800 -58.0270 217° Southwest 229 264 6,600 -1,200 Descending FlightAware
08:40AM -34.5010 -58.0460 217° Southwest 230 265 5,900 -1,500 Descending FlightAware
08:40AM -34.5270 -58.0700 217° Southwest 231 266 5,200 -1,440 Descending FlightAware
08:41AM -34.5530 -58.0940 217° Southwest 234 269 4,500 -1,380 Descending FlightAware
08:41AM -34.5780 -58.1160 216° Southwest 232 267 3,900 -1,200 Descending FlightAware
08:41AM -34.5880 -58.1260 219° Southwest 231 266 3,700 -1,080 Descending FlightAware
08:42AM -34.6110 -58.1480 218° Southwest 229 264 3,200 -1,080 Descending FlightAware
08:42AM -34.6350 -58.1700 217° Southwest 224 258 2,700 -840 Descending FlightAware
08:43AM -34.6480 -58.1820 217° Southwest 227 261 2,600 -180 Descending FlightAware
08:43AM -34.6660 -58.2000 219° Southwest 202 232 2,600 -180 Level FlightAware
08:43AM -34.6710 -58.2150 248° West 181 208 2,500 -420 Descending FlightAware
08:44AM -34.6650 -58.2390 287° West 171 197 2,300 -780 Descending FlightAware
08:44AM -34.6490 -58.2590 314° West 157 181 1,800 -840 Descending FlightAware
08:44AM -34.6470 -58.2620 309° West 154 177 1,800  Level FlightAware
08:45AM -34.6320 -58.2840 310° West 127 146 1,800  Level FlightAware
08:45AM -34.6230 -58.3010 303° West 130 150 1,800 -240 Level FlightAware
08:46AM -34.6150 -58.3150 305° West 126 145 1,600 -420 Descending FlightAware
08:46AM -34.6080 -58.3270 305° West 128 147 1,500 -420 Descending FlightAware
08:47AM -34.5990 -58.3430 304° West 127 146 1,300 -480 Descending FlightAware
08:47AM -34.5900 -58.3600 303° West 127 146 1,100 -660 Descending FlightAware
08:47AM -34.5800 -58.3770 306° West 127 146 700 -720 Descending FlightAware
08:48AM -34.5730 -58.3910 301° West 127 146 500 -300 Descending FlightAware
08:48AM -34.5660 -58.4040 303° West 127 146 500  Level FlightAware
08:51AM -34.5592 -58.4156 306° West  Level Estimated
08:52AM -34.5592 -58.4156 147° Southeast  Level Estimated
08:53AM -34.5592 -58.4156 33° Northeast  Level Estimated
08:54AM -34.5592 -58.4156 147° Southeast  Level Estimated
08:55AM -34.5592 -58.4156 33° Northeast  Level Estimated
08:56AM -34.5592 -58.4156 147° Southeast  Level Estimated
08:57AM -34.5592 -58.4156 33° Northeast  Level Estimated
08:58AM -34.5592 -58.4156 147° Southeast  Level Estimated
08:59AM -34.5592 -58.4156 33° Northeast  Level Estimated
09:00AM -34.5592 -58.4156 147° Southeast  Level Estimated
09:01AM -34.5592 -58.4156 33° Northeast  Level Estimated
09:02AM -34.5592 -58.4156 147° Southeast  Level Estimated
09:03AM -34.5592 -58.4156 33° Northeast  Level Estimated
09:04AM -34.5592 -58.4156 147° Southeast  Level Estimated
09:05AM -34.5592 -58.4156 33° Northeast  Level Estimated
09:06AM -34.5592 -58.4156 147° Southeast  Level Estimated
09:07AM -34.5592 -58.4156 33° Northeast  Level Estimated
09:08AM -34.5592 -58.4156 147° Southeast  Level Estimated
09:09AM -34.5592 -58.4156 33° Northeast  Level Estimated
09:10AM -34.5592 -58.4156 147° Southeast  Level Estimated
09:11AM -34.5592 -58.4156 33° Northeast  Level Estimated
09:12AM -34.5592 -58.4156 147° Southeast  Level Estimated
09:13AM -34.5592 -58.4156 33° Northeast  Level Estimated
09:14AM -34.5592 -58.4156 147° Southeast  Level Estimated
09:15AM -34.5592 -58.4156 33° Northeast  Level Estimated
09:16AM -34.5592 -58.4156 147° Southeast  Level Estimated
09:17AM -34.5592 -58.4156 33° Northeast  Level Estimated
09:18AM -34.5592 -58.4156 147° Southeast  Level Estimated
09:19AM -34.5592 -58.4156 33° Northeast  Level Estimated